Time;durP1;ratioP1;P1;durP2;ratioP2;P2;SDS_P1;SDS_P2;PMS_P1;PMS_P2;Temp;Humidity;BMP_temperature;BMP_pressure;BME280_temperature;BME280_humidity;BME280_pressure;Samples;Min_cycle;Max_cycle;Signal;HPM_P1;HPM_P2
2022/06/02 00:02:32;;;;;;;6.07;4.60;;;;;;;20.73;84.84;99209.44;5005619;28;20238;-77
2022/06/02 00:05:08;;;;;;;7.73;4.83;;;;;;;20.71;85.19;99209.63;5082580;28;20219;-77
2022/06/02 00:07:44;;;;;;;7.60;4.30;;;;;;;20.68;85.20;99219.53;5088184;28;20239;-80
2022/06/02 00:10:24;;;;;;;7.20;4.73;;;;;;;20.65;85.21;99219.88;5088202;28;20211;-79
2022/06/02 00:12:55;;;;;;;6.37;4.53;;;;;;;20.61;84.93;99222.03;5088199;28;20224;-80
2022/06/02 00:15:26;;;;;;;5.33;4.50;;;;;;;20.60;85.32;99222.22;5088051;28;20203;-80
2022/06/02 00:18:02;;;;;;;7.77;4.57;;;;;;;20.60;85.08;99222.22;5087933;28;20689;-80
2022/06/02 00:20:37;;;;;;;10.57;5.00;;;;;;;20.58;85.48;99225.78;5087989;28;20218;-77
2022/06/02 00:23:34;;;;;;;6.40;4.37;;;;;;;20.56;84.89;99222.53;5088178;28;20793;-77
2022/06/02 00:26:14;;;;;;;6.43;4.23;;;;;;;20.54;85.37;99229.69;5088099;28;20683;-78
2022/06/02 00:28:49;;;;;;;6.90;4.63;;;;;;;20.50;84.65;99218.00;5089308;28;20732;-78
2022/06/02 00:31:27;;;;;;;8.57;4.70;;;;;;;20.50;84.90;99222.38;5091631;28;20278;-80
2022/06/02 00:34:02;;;;;;;8.07;4.37;;;;;;;20.48;84.60;99219.97;5091246;28;20210;-80
2022/06/02 00:36:36;;;;;;;6.10;4.30;;;;;;;20.47;84.92;99215.72;5091293;28;20231;-80
2022/06/02 00:39:03;;;;;;;8.70;4.63;;;;;;;20.46;84.38;99223.72;5091490;28;20210;-78
2022/06/02 00:41:38;;;;;;;7.07;4.73;;;;;;;20.39;84.57;99220.16;5091116;28;20347;-80
2022/06/02 00:44:16;;;;;;;8.13;4.90;;;;;;;20.34;85.34;99212.91;5091160;28;20232;-80
2022/06/02 00:46:53;;;;;;;6.17;4.47;;;;;;;20.34;85.86;99212.91;5091479;28;20245;-78
2022/06/02 00:49:33;;;;;;;6.53;4.30;;;;;;;20.34;85.79;99207.72;5091074;28;20306;-80
2022/06/02 00:52:14;;;;;;;8.90;4.57;;;;;;;20.38;86.41;99210.78;5091157;28;20234;-80
2022/06/02 00:57:37;;;;;;;5.80;4.20;;;;;;;20.38;86.33;99202.97;5091185;28;20697;-80
2022/06/02 01:00:12;;;;;;;7.77;4.57;;;;;;;20.34;86.09;99202.50;5090811;28;20273;-80
2022/06/02 01:02:48;;;;;;;6.50;4.40;;;;;;;20.30;85.63;99206.41;5090783;28;20310;-78
2022/06/02 01:05:21;;;;;;;6.77;4.40;;;;;;;20.21;87.13;99200.47;5090997;28;20209;-80
2022/06/02 01:07:56;;;;;;;5.87;4.73;;;;;;;20.23;86.64;99205.50;5090597;28;20229;-79
2022/06/02 01:10:45;;;;;;;7.33;4.50;;;;;;;20.22;86.93;99211.69;5090508;28;20212;-81
2022/06/02 01:13:25;;;;;;;9.00;4.63;;;;;;;20.09;87.53;99212.19;5091052;28;20215;-78
2022/06/02 01:16:06;;;;;;;6.97;4.80;;;;;;;20.06;87.40;99209.94;5090951;28;20285;-80
2022/06/02 01:18:43;;;;;;;6.57;5.17;;;;;;;19.99;86.88;99199.44;5090868;28;20217;-79
2022/06/02 01:21:40;;;;;;;5.97;5.07;;;;;;;19.99;87.00;99196.03;5090710;28;20290;-79
2022/06/02 01:24:35;;;;;;;7.30;5.30;;;;;;;20.01;87.24;99187.09;5090361;28;20230;-78
2022/06/02 01:27:28;;;;;;;8.60;5.50;;;;;;;20.00;87.59;99193.25;5090496;28;20288;-77
2022/06/02 01:30:17;;;;;;;9.97;5.97;;;;;;;19.95;88.04;99187.75;5090397;28;20208;-80
2022/06/02 01:32:57;;;;;;;10.07;5.97;;;;;;;19.94;89.30;99196.53;5090652;28;20222;-79
2022/06/02 01:35:35;;;;;;;10.30;6.47;;;;;;;19.94;89.44;99196.53;5090560;28;20259;-77
2022/06/02 01:38:14;;;;;;;8.80;6.50;;;;;;;19.96;90.40;99192.00;5090364;28;20211;-79
2022/06/02 01:40:54;;;;;;;8.70;6.63;;;;;;;19.92;90.72;99188.09;5089543;28;20235;-80
2022/06/02 01:43:27;;;;;;;10.90;7.03;;;;;;;19.93;91.14;99189.72;5090119;28;20286;-80
2022/06/02 01:46:16;;;;;;;9.30;6.70;;;;;;;19.91;91.41;99186.47;5090160;28;20244;-77
2022/06/02 01:48:51;;;;;;;10.53;7.53;;;;;;;19.87;92.16;99185.22;5077489;28;20219;-80
2022/06/02 01:51:30;;;;;;;13.10;7.67;;;;;;;19.80;92.59;99190.25;5090136;28;20698;-78
2022/06/02 01:54:06;;;;;;;9.80;7.33;;;;;;;19.78;93.59;99186.19;5090025;28;20219;-78
2022/06/02 01:56:53;;;;;;;11.07;6.83;;;;;;;19.75;92.87;99187.38;5090504;28;20331;-79
2022/06/02 01:59:34;;;;;;;11.00;6.70;;;;;;;19.67;92.69;99190.78;5090033;28;20583;-80
2022/06/02 02:02:09;;;;;;;10.63;6.80;;;;;;;19.55;92.97;99186.91;5089846;28;20729;-80
2022/06/02 02:05:03;;;;;;;9.57;6.77;;;;;;;19.44;93.60;99179.47;5089951;28;20645;-80
2022/06/02 02:07:41;;;;;;;8.20;6.83;;;;;;;19.30;94.29;99182.75;5090251;28;20235;-80
2022/06/02 02:10:19;;;;;;;10.90;6.83;;;;;;;19.22;94.66;99181.75;5089845;28;20204;-78
2022/06/02 02:13:03;;;;;;;12.10;7.33;;;;;;;19.18;94.89;99175.28;5089943;28;20731;-80
2022/06/02 02:15:38;;;;;;;12.10;7.10;;;;;;;19.16;95.32;99177.22;5089848;28;20264;-80
2022/06/02 02:18:18;;;;;;;9.63;7.57;;;;;;;19.12;95.15;99183.72;5090018;28;20218;-80
2022/06/02 02:20:57;;;;;;;10.10;7.67;;;;;;;19.08;95.94;99182.44;5089935;28;20236;-79
2022/06/02 02:23:31;;;;;;;15.47;7.70;;;;;;;19.03;96.70;99184.72;5089429;28;20647;-78
2022/06/02 02:26:02;;;;;;;11.70;8.60;;;;;;;19.02;96.80;99190.84;5089759;28;20230;-80
2022/06/02 02:28:41;;;;;;;12.63;8.20;;;;;;;18.97;98.04;99187.94;5089326;28;20218;-78
2022/06/02 02:31:18;;;;;;;11.37;8.20;;;;;;;18.96;97.91;99191.50;5089533;28;20683;-78
2022/06/02 02:33:55;;;;;;;12.90;8.20;;;;;;;18.87;98.76;99187.28;5089634;28;20309;-80
2022/06/02 02:36:31;;;;;;;10.90;8.50;;;;;;;18.85;98.61;99190.06;5089337;28;20235;-80
2022/06/02 02:39:03;;;;;;;11.30;8.27;;;;;;;18.86;99.00;99190.84;5089303;28;20218;-80
2022/06/02 02:41:38;;;;;;;13.83;8.40;;;;;;;18.84;99.26;99187.63;5089430;28;20229;-78
2022/06/02 02:44:20;;;;;;;13.63;9.03;;;;;;;18.79;99.84;99195.84;5089202;28;20238;-80
2022/06/02 02:46:57;;;;;;;14.40;9.73;;;;;;;18.76;100.00;99194.41;5089240;28;20237;-78
2022/06/02 02:49:32;;;;;;;14.97;9.67;;;;;;;18.73;100.00;99194.75;5089170;28;20745;-78
2022/06/02 02:52:06;;;;;;;19.77;9.70;;;;;;;18.74;100.00;99196.34;5087817;28;20748;-80
2022/06/02 02:54:38;;;;;;;13.33;9.23;;;;;;;18.74;100.00;99198.94;5089047;28;20271;-78
2022/06/02 02:57:16;;;;;;;16.50;10.23;;;;;;;18.74;100.00;99201.53;5089281;28;20798;-78
2022/06/02 02:59:51;;;;;;;23.40;10.03;;;;;;;18.73;100.00;99202.50;5089028;28;20212;-78
2022/06/02 03:02:23;;;;;;;13.43;9.23;;;;;;;18.72;100.00;99200.84;5089068;28;20232;-78
2022/06/02 03:05:01;;;;;;;12.47;9.20;;;;;;;18.75;100.00;99204.94;5088874;28;20271;-81
2022/06/02 03:07:30;;;;;;;15.97;9.70;;;;;;;18.77;100.00;99203.00;5089036;28;20326;-80
2022/06/02 03:10:06;;;;;;;15.10;9.40;;;;;;;18.80;100.00;99201.88;5088793;28;20671;-81
2022/06/02 03:13:02;;;;;;;15.93;9.90;;;;;;;18.83;100.00;99206.72;5088998;28;20235;-78
2022/06/02 03:15:36;;;;;;;12.57;9.20;;;;;;;18.87;100.00;99205.41;5088928;28;20478;-80
2022/06/02 03:18:44;;;;;;;14.87;9.87;;;;;;;18.93;100.00;99212.53;5088908;28;20221;-78
2022/06/02 03:21:17;;;;;;;14.50;9.43;;;;;;;18.96;100.00;99212.22;5060691;28;20235;-80
2022/06/02 03:24:17;;;;;;;13.50;9.60;;;;;;;18.96;100.00;99207.84;5088630;28;20263;-78
2022/06/02 03:26:54;;;;;;;15.73;9.47;;;;;;;19.04;100.00;99207.03;5088825;28;20264;-78
2022/06/02 03:29:30;;;;;;;16.03;9.23;;;;;;;19.10;100.00;99208.97;5088420;28;20205;-80
2022/06/02 03:32:00;;;;;;;13.40;9.10;;;;;;;19.13;100.00;99206.06;5088838;28;20226;-79
2022/06/02 03:34:34;;;;;;;15.00;9.40;;;;;;;19.17;100.00;99209.97;5088521;28;20225;-80
2022/06/02 03:37:31;;;;;;;15.10;9.30;;;;;;;19.21;100.00;99211.25;5088565;28;20281;-80
2022/06/02 03:40:22;;;;;;;13.27;8.93;;;;;;;19.23;100.00;99219.69;5059542;28;20213;-78
2022/06/02 03:42:58;;;;;;;13.63;8.63;;;;;;;19.28;100.00;99215.78;5088479;28;20233;-78
2022/06/02 03:45:37;;;;;;;13.07;8.03;;;;;;;19.33;100.00;99219.50;5088320;28;20253;-80
2022/06/02 03:48:24;;;;;;;12.03;8.17;;;;;;;19.43;99.64;99222.75;5088512;28;20211;-78
2022/06/02 03:51:06;;;;;;;12.93;7.97;;;;;;;19.50;99.06;99228.06;5088186;28;20230;-78
2022/06/02 03:54:03;;;;;;;11.43;7.70;;;;;;;19.54;98.98;99223.38;5088438;28;20213;-78
2022/06/02 03:56:44;;;;;;;12.10;7.97;;;;;;;19.53;99.00;99219.97;5088390;28;20241;-80
2022/06/02 03:59:30;;;;;;;15.20;7.83;;;;;;;19.61;98.90;99222.53;5088200;28;20213;-80
2022/06/02 04:02:02;;;;;;;12.87;8.47;;;;;;;19.70;98.64;99230.34;5088101;28;20286;-78
2022/06/02 04:04:38;;;;;;;15.23;8.70;;;;;;;19.83;98.83;99230.63;5090785;28;20251;-80
2022/06/02 04:07:33;;;;;;;12.63;8.80;;;;;;;19.86;98.27;99230.28;5091651;28;20255;-78
2022/06/02 04:10:12;;;;;;;11.93;7.83;;;;;;;19.91;98.20;99233.19;5091801;28;20211;-77
2022/06/02 04:16:08;;;;;;;11.97;8.37;;;;;;;20.13;97.69;99240.25;5091977;28;20250;-80
2022/06/02 04:18:48;;;;;;;16.17;8.03;;;;;;;20.25;97.24;99237.28;5091630;28;20217;-79
2022/06/02 04:21:25;;;;;;;10.57;8.63;;;;;;;20.36;97.31;99236.91;5091404;28;20236;-80
2022/06/02 04:24:27;;;;;;;13.17;8.60;;;;;;;20.50;97.43;99243.97;5091346;28;20232;-78
2022/06/02 04:27:15;;;;;;;11.53;8.70;;;;;;;20.71;95.79;99251.19;5008703;28;20239;-80
2022/06/02 04:30:03;;;;;;;11.37;8.50;;;;;;;20.86;95.67;99259.06;5087307;28;20259;-78
2022/06/02 04:32:40;;;;;;;15.97;8.80;;;;;;;20.96;94.39;99257.03;5091501;28;20231;-80
2022/06/02 04:35:17;;;;;;;16.07;8.10;;;;;;;21.09;93.38;99263.44;5091361;28;20276;-78
2022/06/02 04:37:53;;;;;;;12.43;8.10;;;;;;;21.30;93.23;99265.41;5091369;28;20212;-80
2022/06/02 04:40:35;;;;;;;12.87;7.97;;;;;;;21.43;94.11;99255.22;5091273;28;20223;-80
2022/06/02 04:43:06;;;;;;;11.57;7.63;;;;;;;21.62;91.90;99264.31;5091208;28;20266;-78
2022/06/02 04:45:44;;;;;;;11.33;7.90;;;;;;;21.77;91.21;99267.75;5091259;28;20604;-81
2022/06/02 04:48:19;;;;;;;12.23;7.83;;;;;;;21.98;89.56;99261.00;5091120;28;20278;-78
2022/06/02 04:50:55;;;;;;;11.23;7.23;;;;;;;22.24;90.29;99269.19;5091061;28;20282;-81
2022/06/02 04:53:27;;;;;;;12.15;7.88;;;;;;;22.60;88.89;99268.38;5091162;28;20217;-82
2022/06/02 04:56:03;;;;;;;13.40;8.20;;;;;;;22.88;86.25;99275.50;5090755;28;20241;-81
2022/06/02 04:58:38;;;;;;;10.68;7.75;;;;;;;23.12;87.90;99267.31;5091392;28;20233;-78
2022/06/02 05:01:12;;;;;;;10.98;7.85;;;;;;;23.38;85.45;99265.94;5090681;28;20703;-82
2022/06/02 05:03:46;;;;;;;11.40;7.60;;;;;;;23.52;85.61;99262.44;5090867;28;20832;-78
2022/06/02 05:06:24;;;;;;;11.57;7.05;;;;;;;23.80;83.15;99261.66;5090822;28;20240;-78
2022/06/02 05:08:59;;;;;;;8.77;6.70;;;;;;;24.09;84.74;99261.41;5091122;28;20650;-78
2022/06/02 05:11:39;;;;;;;11.63;7.15;;;;;;;24.18;79.53;99264.66;5090538;28;20715;-82
2022/06/02 05:14:17;;;;;;;8.18;5.97;;;;;;;24.37;80.84;99266.50;5090203;28;20210;-78
2022/06/02 05:16:52;;;;;;;8.35;6.13;;;;;;;24.64;81.08;99266.66;5090652;28;20268;-82
2022/06/02 05:19:35;;;;;;;10.00;6.93;;;;;;;24.85;79.68;99268.28;5090481;28;20201;-82
2022/06/02 05:22:33;;;;;;;11.20;6.85;;;;;;;25.20;78.48;99278.63;5090643;28;20287;-82
2022/06/02 05:25:33;;;;;;;12.70;7.35;;;;;;;25.48;79.32;99268.75;5090439;28;20220;-82
2022/06/02 05:28:28;;;;;;;12.60;8.00;;;;;;;25.66;76.47;99275.97;5090422;28;20209;-78
2022/06/02 05:31:23;;;;;;;12.57;7.85;;;;;;;25.86;77.51;99277.75;5090401;28;20290;-81
2022/06/02 05:34:23;;;;;;;13.00;7.68;;;;;;;26.07;78.03;99288.00;5090431;28;20217;-81
2022/06/02 05:37:00;;;;;;;13.32;7.25;;;;;;;26.32;76.89;99280.22;5090242;28;20255;-78
2022/06/02 05:39:44;;;;;;;7.40;6.40;;;;;;;26.47;71.94;99284.41;5090481;28;20581;-81
2022/06/02 05:42:19;;;;;;;8.60;5.85;;;;;;;26.71;71.83;99283.72;5090527;28;20759;-80
2022/06/02 05:44:57;;;;;;;8.02;6.20;;;;;;;26.90;73.76;99276.72;5090232;28;20232;-81
2022/06/02 05:47:40;;;;;;;8.60;6.38;;;;;;;27.12;74.11;99285.06;5090394;28;20268;-80
2022/06/02 05:50:19;;;;;;;8.20;6.18;;;;;;;27.43;76.97;99280.78;5090174;28;20279;-81
2022/06/02 05:52:56;;;;;;;8.63;5.78;;;;;;;27.62;72.93;99279.78;5090193;28;20221;-77
2022/06/02 05:55:34;;;;;;;8.30;6.13;;;;;;;27.81;72.58;99279.84;5089870;28;20209;-80
2022/06/02 05:58:16;;;;;;;9.60;6.35;;;;;;;27.87;70.21;99276.34;5090193;28;20238;-81
2022/06/02 06:00:54;;;;;;;9.05;5.85;;;;;;;28.09;69.31;99280.13;5090185;28;20237;-80
2022/06/02 06:03:45;;;;;;;6.20;5.28;;;;;;;28.22;64.46;99279.19;5089858;28;20233;-81
2022/06/02 06:06:24;;;;;;;7.53;5.90;;;;;;;28.51;68.43;99282.91;5089868;28;20233;-77
2022/06/02 06:09:02;;;;;;;9.13;6.25;;;;;;;28.57;62.85;99289.88;5090052;28;20232;-77
2022/06/02 06:11:41;;;;;;;9.15;5.95;;;;;;;28.83;64.72;99274.75;5089749;28;20277;-77
2022/06/02 06:14:19;;;;;;;8.68;5.60;;;;;;;29.02;68.39;99283.38;5089622;28;20213;-81
2022/06/02 06:16:56;;;;;;;7.55;5.65;;;;;;;29.12;61.76;99286.28;5089757;28;20234;-81
2022/06/02 06:19:38;;;;;;;11.93;6.07;;;;;;;29.37;69.12;99272.91;5089597;28;20282;-81
2022/06/02 06:22:27;;;;;;;8.40;6.47;;;;;;;29.46;62.24;99279.41;5089706;28;20406;-81
2022/06/02 06:25:16;;;;;;;14.77;6.10;;;;;;;29.40;58.31;99277.69;5085976;28;20230;-81
2022/06/02 06:27:57;;;;;;;8.00;6.15;;;;;;;29.60;63.55;99285.25;5089355;28;20304;-77
2022/06/02 06:30:33;;;;;;;8.57;6.05;;;;;;;29.58;59.77;99286.53;5089489;28;20244;-81
2022/06/02 06:33:13;;;;;;;10.40;6.35;;;;;;;29.57;60.58;99285.72;5089737;28;20664;-81
2022/06/02 06:35:52;;;;;;;11.00;5.95;;;;;;;29.32;57.91;99288.56;5089572;28;20251;-81
2022/06/02 06:38:45;;;;;;;10.25;5.75;;;;;;;29.65;62.09;99282.78;5089355;28;20214;-77
2022/06/02 06:41:45;;;;;;;8.25;5.78;;;;;;;29.76;57.90;99284.59;5089265;28;20226;-81
2022/06/02 06:44:20;;;;;;;9.95;6.43;;;;;;;30.07;65.12;99284.41;5089160;28;20234;-80
2022/06/02 06:46:54;;;;;;;8.13;5.75;;;;;;;30.04;57.11;99292.78;5089210;28;20392;-77
2022/06/02 06:49:35;;;;;;;8.65;5.45;;;;;;;30.17;55.94;99289.91;5089105;28;20216;-77
2022/06/02 06:52:16;;;;;;;8.02;5.43;;;;;;;30.52;63.50;99291.66;5089538;28;20255;-77
2022/06/02 06:54:53;;;;;;;8.35;5.75;;;;;;;30.77;56.99;99297.34;5089066;28;20254;-78
2022/06/02 06:57:26;;;;;;;8.30;5.03;;;;;;;30.96;57.58;99292.72;5089183;28;20730;-81
2022/06/02 07:00:01;;;;;;;9.55;6.10;;;;;;;31.11;58.13;99294.78;5089005;28;20218;-77
2022/06/02 07:02:46;;;;;;;8.35;5.45;;;;;;;31.20;54.03;99298.63;5088960;28;20228;-81
2022/06/02 07:05:19;;;;;;;9.82;5.68;;;;;;;31.28;56.98;99298.22;5088659;28;20218;-77
2022/06/02 07:07:56;;;;;;;7.82;5.10;;;;;;;31.39;53.70;99299.22;5089045;28;20217;-81
2022/06/02 07:10:30;;;;;;;7.57;5.20;;;;;;;31.57;60.08;99301.59;5089042;28;20684;-80
2022/06/02 07:13:10;;;;;;;5.90;5.22;;;;;;;31.76;55.59;99302.09;5089136;28;20880;-81
2022/06/02 07:15:47;;;;;;;7.18;5.80;;;;;;;31.87;54.50;99307.53;5088509;28;20766;-81
2022/06/02 07:18:22;;;;;;;6.10;4.90;;;;;;;31.62;52.74;99310.63;5088809;28;20217;-81
2022/06/02 07:20:56;;;;;;;5.82;5.10;;;;;;;31.83;51.20;99306.44;5088901;28;20730;-81
2022/06/02 07:23:39;;;;;;;7.25;5.30;;;;;;;31.96;52.62;99306.09;5088915;28;20675;-77
2022/06/02 07:26:16;;;;;;;11.00;5.75;;;;;;;32.34;53.52;99299.13;5088545;28;20226;-81
2022/06/02 07:28:55;;;;;;;6.30;5.20;;;;;;;32.52;50.08;99306.75;5088607;28;20209;-78
2022/06/02 07:31:35;;;;;;;9.95;5.43;;;;;;;32.78;49.35;99317.59;5088376;28;20233;-77
2022/06/02 07:34:14;;;;;;;6.05;5.35;;;;;;;32.86;50.39;99319.78;5088636;28;20229;-77
2022/06/02 07:37:05;;;;;;;7.03;5.53;;;;;;;32.95;52.41;99318.25;5088483;28;20237;-77
2022/06/02 07:39:59;;;;;;;10.23;5.60;;;;;;;33.06;53.42;99324.50;5091861;28;20701;-77
2022/06/02 07:42:43;;;;;;;6.68;5.50;;;;;;;33.35;47.63;99317.03;5092349;28;20245;-77
2022/06/02 07:45:26;;;;;;;10.30;5.65;;;;;;;33.06;47.90;99325.28;5092103;28;20210;-77
2022/06/02 07:48:07;;;;;;;8.15;5.28;;;;;;;32.75;49.46;99318.09;5092249;28;20217;-81
2022/06/02 07:50:36;;;;;;;8.75;5.45;;;;;;;32.97;49.20;99316.16;5091935;28;20433;-76
2022/06/02 07:53:11;;;;;;;6.50;5.40;;;;;;;33.32;54.15;99320.19;5092105;28;20214;-79
2022/06/02 07:55:46;;;;;;;7.63;5.50;;;;;;;33.56;47.40;99315.31;5092050;28;20244;-76
2022/06/02 07:58:24;;;;;;;6.47;5.00;;;;;;;33.42;46.76;99322.09;5091908;28;20213;-77
2022/06/02 08:00:57;;;;;;;5.80;4.90;;;;;;;32.78;49.54;99322.88;5092015;28;20290;-78
2022/06/02 08:03:39;;;;;;;10.25;5.13;;;;;;;33.11;49.06;99322.69;5092084;28;20236;-77
2022/06/02 08:06:14;;;;;;;7.15;5.07;;;;;;;33.41;49.08;99325.81;5091764;28;20233;-77
2022/06/02 08:08:49;;;;;;;8.45;5.53;;;;;;;33.48;47.35;99326.38;5091715;28;20209;-78
2022/06/02 08:11:32;;;;;;;10.13;5.05;;;;;;;33.51;48.20;99332.03;5092090;28;20325;-84
2022/06/02 08:14:13;;;;;;;7.35;5.47;;;;;;;33.49;46.42;99318.19;5091766;28;20237;-80
2022/06/02 08:16:53;;;;;;;7.30;5.03;;;;;;;33.23;46.42;99319.06;5091845;28;20269;-77
2022/06/02 08:19:35;;;;;;;10.18;5.93;;;;;;;32.62;48.53;99322.75;5091893;28;20214;-81
2022/06/02 08:22:04;;;;;;;9.98;5.82;;;;;;;31.79;49.65;99322.78;5091678;28;20225;-78
2022/06/02 08:24:40;;;;;;;9.07;5.53;;;;;;;31.55;51.92;99316.09;5091564;28;20230;-76
2022/06/02 08:27:22;;;;;;;7.45;5.63;;;;;;;31.35;53.77;99327.94;5091667;28;20264;-77
2022/06/02 08:30:02;;;;;;;9.13;5.22;;;;;;;30.83;49.88;99320.19;5091143;28;20220;-81
2022/06/02 08:32:50;;;;;;;6.68;5.43;;;;;;;30.59;52.40;99316.84;5091377;28;20265;-80
2022/06/02 08:35:23;;;;;;;7.70;5.22;;;;;;;30.72;54.93;99322.88;5087656;28;20202;-78
2022/06/02 08:38:06;;;;;;;9.48;5.43;;;;;;;30.18;54.65;99328.44;5091505;28;20638;-82
2022/06/02 08:41:29;;;;;;;12.48;7.35;;;;;;;30.39;56.30;99330.44;5091299;28;20213;-78
2022/06/02 08:44:34;;;;;;;8.98;6.43;;;;;;;30.61;55.12;99325.34;5089252;28;20240;-79
2022/06/02 08:47:40;;;;;;;8.38;6.50;;;;;;;30.61;51.71;99325.34;5091145;28;20237;-81
2022/06/02 08:50:42;;;;;;;9.02;6.18;;;;;;;30.75;57.14;99328.50;5091077;28;20214;-78
2022/06/02 08:53:56;;;;;;;7.97;5.55;;;;;;;31.54;54.90;99330.34;5022747;28;20684;-79
2022/06/02 08:56:48;;;;;;;9.90;5.75;;;;;;;31.94;51.00;99332.78;5090917;28;20742;-78
2022/06/02 08:59:56;;;;;;;10.45;5.15;;;;;;;32.25;46.73;99326.00;5091101;28;20245;-78
2022/06/02 09:03:04;;;;;;;6.95;4.63;;;;;;;32.65;47.27;99335.47;5025787;28;20656;-81
2022/06/02 09:06:11;;;;;;;7.63;4.85;;;;;;;32.73;48.16;99325.50;5068785;28;20218;-80
2022/06/02 09:09:29;;;;;;;7.00;4.95;;;;;;;32.71;43.72;99322.28;5090952;28;20213;-78
2022/06/02 09:12:44;;;;;;;6.72;4.80;;;;;;;33.09;47.81;99324.78;5008401;28;20236;-78
2022/06/02 09:15:44;;;;;;;8.18;5.20;;;;;;;33.37;45.80;99330.81;4996189;28;20302;-78
2022/06/02 09:18:37;;;;;;;6.70;4.40;;;;;;;33.26;44.17;99326.50;5090899;28;20268;-78
2022/06/02 09:21:08;;;;;;;8.98;5.20;;;;;;;32.94;42.47;99332.56;5090591;28;20303;-78
2022/06/02 09:23:47;;;;;;;9.65;5.28;;;;;;;32.96;46.44;99330.47;5090602;28;20232;-81
2022/06/02 09:26:28;;;;;;;7.82;4.63;;;;;;;33.39;44.79;99323.41;5090418;28;20325;-82
2022/06/02 09:29:20;;;;;;;8.20;5.60;;;;;;;33.83;45.21;99317.84;5090699;28;20209;-82
2022/06/02 09:32:06;;;;;;;9.23;5.32;;;;;;;33.79;41.69;99324.72;5080696;28;20255;-83
2022/06/02 09:34:41;;;;;;;7.82;5.30;;;;;;;33.61;45.54;99325.19;5090698;28;20239;-78
2022/06/02 09:38:06;;;;;;;6.80;5.70;;;;;;;33.87;43.13;99324.25;5090417;28;20302;-79
2022/06/02 09:40:48;;;;;;;7.03;5.57;;;;;;;33.69;44.06;99327.34;5090634;28;20221;-77
2022/06/02 09:43:48;;;;;;;6.75;5.32;;;;;;;33.54;41.67;99326.19;5087849;28;20617;-84
2022/06/02 09:46:54;;;;;;;5.03;4.53;;;;;;;33.89;43.94;99337.25;5083899;28;20757;-85
2022/06/02 09:49:47;;;;;;;8.63;4.90;;;;;;;32.86;43.48;99335.66;5090255;28;20210;-83
2022/06/02 09:52:28;;;;;;;6.57;4.75;;;;;;;33.38;40.69;99327.13;5045596;28;20229;-84
2022/06/02 09:55:17;;;;;;;7.70;5.03;;;;;;;33.25;44.06;99324.88;5089915;28;20218;-78
2022/06/02 09:58:30;;;;;;;6.00;5.07;;;;;;;33.18;44.75;99317.16;5090200;28;20206;-82
2022/06/02 10:01:10;;;;;;;7.45;5.13;;;;;;;33.50;45.40;99318.97;5046461;28;20310;-79
2022/06/02 10:03:53;;;;;;;6.78;5.25;;;;;;;33.87;44.89;99324.25;5090118;28;20260;-83
2022/06/02 10:06:42;;;;;;;7.60;5.25;;;;;;;34.08;42.15;99325.16;5089586;28;20237;-79
2022/06/02 10:09:24;;;;;;;6.30;5.57;;;;;;;34.27;41.10;99328.16;5089924;28;20206;-83
2022/06/02 10:15:05;;;;;;;7.50;5.22;;;;;;;34.53;44.93;99325.56;5088726;28;20556;-79
2022/06/02 10:17:55;;;;;;;7.72;5.18;;;;;;;34.69;40.30;99321.91;5090163;28;20237;-79
2022/06/02 10:20:53;;;;;;;7.65;5.10;;;;;;;34.87;39.73;99316.06;5089671;28;20210;-79
2022/06/02 10:24:08;;;;;;;8.45;5.72;;;;;;;34.02;41.92;99316.34;5089866;28;20226;-79
2022/06/02 10:26:55;;;;;;;9.40;5.22;;;;;;;34.10;40.43;99317.75;5089528;28;20287;-82
2022/06/02 10:30:11;;;;;;;6.55;5.20;;;;;;;34.34;41.98;99310.13;5089540;28;20206;-82
2022/06/02 10:33:10;;;;;;;7.75;5.70;;;;;;;33.96;44.29;99309.44;5089419;28;20233;-79
2022/06/02 10:36:07;;;;;;;8.32;5.43;;;;;;;33.85;40.67;99307.78;5044994;28;20244;-82
2022/06/02 10:38:41;;;;;;;6.65;5.18;;;;;;;33.86;44.73;99305.94;5089650;28;20218;-82
2022/06/02 10:41:24;;;;;;;7.88;5.47;;;;;;;33.21;41.63;99294.66;5089491;28;20674;-79
2022/06/02 10:44:11;;;;;;;7.47;5.35;;;;;;;33.34;45.65;99302.19;5089408;28;20589;-79
2022/06/02 10:47:08;;;;;;;7.85;5.60;;;;;;;33.58;45.62;99295.47;5089585;28;20336;-82
2022/06/02 10:49:39;;;;;;;7.28;5.20;;;;;;;33.47;45.67;99299.06;5089187;28;20614;-82
2022/06/02 10:52:47;;;;;;;10.18;5.50;;;;;;;33.64;40.21;99292.84;5089095;28;20237;-78
2022/06/02 10:55:38;;;;;;;11.75;5.50;;;;;;;33.16;40.88;99286.66;5089274;28;20202;-79
2022/06/02 10:58:53;;;;;;;6.65;5.13;;;;;;;33.24;43.19;99279.03;5089291;28;20683;-78
2022/06/02 11:01:57;;;;;;;9.07;5.38;;;;;;;33.26;40.84;99286.75;5089324;28;20269;-81
2022/06/02 11:04:59;;;;;;;8.05;4.80;;;;;;;32.41;43.54;99286.50;5088915;28;20229;-78
2022/06/02 11:08:01;;;;;;;10.15;5.47;;;;;;;32.78;41.12;99296.41;5089027;28;20294;-81
2022/06/02 11:10:34;;;;;;;8.68;5.50;;;;;;;33.00;42.67;99291.84;5088884;28;20213;-79
2022/06/02 11:13:41;;;;;;;6.75;4.95;;;;;;;33.30;43.19;99282.53;5088014;28;20209;-78
2022/06/02 11:16:55;;;;;;;8.23;4.72;;;;;;;33.65;44.00;99283.81;5088524;28;20241;-83
2022/06/02 11:19:51;;;;;;;7.93;4.85;;;;;;;33.36;40.63;99271.69;5088792;28;20245;-82
2022/06/02 11:22:54;;;;;;;8.02;4.88;;;;;;;33.56;39.32;99273.69;5089103;28;20291;-79
2022/06/02 11:26:10;;;;;;;6.60;4.97;;;;;;;33.22;39.95;99275.03;5088673;28;20689;-79
2022/06/02 11:29:16;;;;;;;7.03;4.72;;;;;;;33.56;42.77;99268.38;5083055;28;20222;-82
2022/06/02 11:32:10;;;;;;;6.40;5.05;;;;;;;33.17;43.28;99267.09;5088394;28;20855;-78
2022/06/02 11:35:15;;;;;;;6.47;4.68;;;;;;;33.55;40.53;99269.47;5088591;28;20213;-82
2022/06/02 11:38:13;;;;;;;8.07;4.72;;;;;;;33.56;38.30;99260.44;5088669;28;20746;-78
2022/06/02 11:41:07;;;;;;;7.70;5.38;;;;;;;33.30;40.87;99261.31;5088435;28;20233;-79
2022/06/02 11:43:47;;;;;;;7.40;4.88;;;;;;;33.20;42.00;99258.63;5074684;28;20233;-78
2022/06/02 11:46:52;;;;;;;8.75;5.63;;;;;;;33.27;42.41;99253.88;5088501;28;20253;-79
2022/06/02 11:49:50;;;;;;;11.70;5.55;;;;;;;33.46;42.59;99249.75;5088479;28;20217;-79
2022/06/02 11:52:48;;;;;;;6.28;5.50;;;;;;;33.72;42.86;99258.66;5088239;28;20226;-82
2022/06/02 11:55:26;;;;;;;7.20;5.43;;;;;;;33.90;43.52;99252.09;5081263;28;20210;-82
2022/06/02 11:58:34;;;;;;;10.73;6.35;;;;;;;33.86;42.14;99247.56;5088411;28;20212;-83
2022/06/02 12:01:23;;;;;;;8.85;5.80;;;;;;;34.07;41.15;99251.13;5012590;28;20297;-78
2022/06/02 12:04:33;;;;;;;7.70;5.70;;;;;;;34.09;40.53;99256.97;5088392;28;20664;-78
2022/06/02 12:07:36;;;;;;;8.40;5.93;;;;;;;34.42;39.62;99253.84;5088072;28;20237;-79
2022/06/02 12:10:45;;;;;;;7.75;5.35;;;;;;;34.28;43.39;99250.13;5088423;28;20217;-83
2022/06/02 12:13:25;;;;;;;8.15;5.70;;;;;;;34.26;42.12;99247.72;5088181;28;20206;-79
2022/06/02 12:16:26;;;;;;;6.03;5.43;;;;;;;34.31;40.13;99244.28;5087900;28;20240;-82
2022/06/02 12:19:16;;;;;;;8.35;5.40;;;;;;;34.25;41.44;99235.50;5088423;28;20593;-83
2022/06/02 12:22:00;;;;;;;8.95;5.82;;;;;;;34.19;39.32;99230.47;5046743;28;20294;-78
2022/06/02 12:24:57;;;;;;;6.57;5.30;;;;;;;34.05;38.91;99230.16;5089319;28;20287;-78
2022/06/02 12:27:48;;;;;;;7.07;5.50;;;;;;;34.16;41.24;99229.13;5091541;28;20634;-83
2022/06/02 12:30:27;;;;;;;8.68;5.47;;;;;;;34.30;39.92;99225.94;5091565;28;20579;-78
2022/06/02 12:33:11;;;;;;;9.82;5.55;;;;;;;33.89;38.78;99220.53;5091527;28;20225;-78
2022/06/02 12:35:55;;;;;;;6.32;5.22;;;;;;;33.99;39.14;99226.66;5091108;28;20671;-82
2022/06/02 12:39:05;;;;;;;6.50;5.10;;;;;;;34.18;40.33;99218.22;5091448;28;20279;-79
2022/06/02 12:41:48;;;;;;;7.30;5.13;;;;;;;34.12;39.52;99213.97;5053090;28;20822;-78
2022/06/02 12:44:56;;;;;;;7.80;5.40;;;;;;;33.66;40.58;99205.84;5091653;28;20237;-82
2022/06/02 12:48:04;;;;;;;6.55;5.47;;;;;;;33.89;43.81;99204.59;5090999;28;20226;-82
2022/06/02 12:50:51;;;;;;;10.38;5.28;;;;;;;33.83;40.46;99206.44;5061874;28;20788;-78
2022/06/02 12:53:53;;;;;;;7.03;5.30;;;;;;;33.88;39.34;99213.63;5091158;28;20688;-82
2022/06/02 12:56:52;;;;;;;7.63;4.90;;;;;;;33.96;41.42;99200.66;5060172;28;20726;-82
2022/06/02 12:59:51;;;;;;;6.50;5.20;;;;;;;33.03;40.18;99209.22;5091132;28;20749;-81
2022/06/02 13:02:29;;;;;;;7.28;4.82;;;;;;;33.33;40.01;99198.00;5090978;28;20234;-81